createdAt,value
2019-01-23T00:02:35.594Z,99425.75
2019-01-23T00:05:37.605Z,99420.78
2019-01-23T00:08:39.601Z,99420.78
2019-01-23T00:11:41.545Z,99411.50
2019-01-23T00:14:43.715Z,99411.50
2019-01-23T00:17:45.670Z,99412.38
2019-01-23T00:20:47.748Z,99409.22
2019-01-23T00:23:49.670Z,99409.22
2019-01-23T00:26:51.645Z,99402.89
2019-01-23T00:29:53.630Z,99408.18
2019-01-23T00:32:55.642Z,99405.75
2019-01-23T00:35:57.580Z,99404.05
2019-01-23T00:38:59.605Z,99408.44
2019-01-23T00:42:01.595Z,99404.43
2019-01-23T00:45:06.674Z,99399.59
2019-01-23T00:48:08.637Z,99396.86
2019-01-23T00:51:10.672Z,99389.98
2019-01-23T00:54:12.884Z,99389.98
2019-01-23T00:57:14.905Z,99396.95
2019-01-23T01:00:22.810Z,99400.92
2019-01-23T01:03:24.759Z,99400.92
2019-01-23T01:06:26.671Z,99377.88
2019-01-23T01:09:28.958Z,99388.45
2019-01-23T01:12:31.546Z,99388.45
2019-01-23T01:15:33.791Z,99388.59
2019-01-23T01:18:35.750Z,99383.36
2019-01-23T01:21:37.758Z,99393.97
2019-01-23T01:24:39.757Z,99385.23
2019-01-23T01:27:41.827Z,99382.31
2019-01-23T01:30:43.825Z,99375.41
2019-01-23T01:33:45.787Z,99375.41
2019-01-23T01:36:47.755Z,99364.61
2019-01-23T01:39:49.761Z,99364.61
2019-01-23T01:42:51.712Z,99357.84
2019-01-23T01:45:54.355Z,99367.84
2019-01-23T01:48:56.441Z,99359.90
2019-01-23T01:51:58.409Z,99359.90
2019-01-23T01:55:00.429Z,99357.41
2019-01-23T01:58:02.731Z,99357.41
2019-01-23T02:01:04.699Z,99347.26
2019-01-23T02:04:06.838Z,99350.21
2019-01-23T02:07:08.824Z,99350.21
2019-01-23T02:10:13.959Z,99358.88
2019-01-23T02:13:16.400Z,99348.16
2019-01-23T02:16:18.558Z,99348.16
2019-01-23T02:19:20.624Z,99365.03
2019-01-23T02:22:23.917Z,99357.54
2019-01-23T02:25:25.839Z,99356.31
2019-01-23T02:28:27.867Z,99353.70
2019-01-23T02:31:29.847Z,99348.80
2019-01-23T02:34:31.868Z,99346.52
2019-01-23T02:37:33.824Z,99344.73
2019-01-23T02:40:35.843Z,99344.73
2019-01-23T02:43:37.811Z,99341.52
2019-01-23T02:46:39.844Z,99346.23
2019-01-23T02:49:41.749Z,99344.42
2019-01-23T02:52:43.709Z,99343.62
2019-01-23T02:55:45.683Z,99346.63
2019-01-23T02:58:47.746Z,99342.80
2019-01-23T03:01:49.678Z,99333.28
2019-01-23T03:04:51.689Z,99340.17
2019-01-23T03:07:53.675Z,99338.99
2019-01-23T03:10:55.693Z,99342.12
2019-01-23T03:13:57.930Z,99339.67
2019-01-23T03:17:00.076Z,99341.75
2019-01-23T03:20:02.673Z,99332.17
2019-01-23T03:23:05.911Z,99333.28
2019-01-23T03:26:07.891Z,99332.70
2019-01-23T03:29:09.851Z,99326.23
2019-01-23T03:32:11.742Z,99326.23
2019-01-23T03:35:13.732Z,99328.95
2019-01-23T03:38:15.678Z,99328.95
2019-01-23T03:41:17.645Z,99321.42
2019-01-23T03:44:19.598Z,99321.85
2019-01-23T03:47:21.690Z,99324.39
2019-01-23T03:50:23.640Z,99323.88
2019-01-23T03:53:25.635Z,99324.25
2019-01-23T03:56:27.721Z,99324.25
2019-01-23T03:59:32.343Z,99319.80
2019-01-23T04:02:34.552Z,99319.86
2019-01-23T04:05:36.557Z,99310.05
2019-01-23T04:08:38.523Z,99301.76
2019-01-23T04:11:40.559Z,99301.25
2019-01-23T04:14:43.114Z,99300.70
2019-01-23T04:17:45.423Z,99300.80
2019-01-23T04:20:47.379Z,99301.86
2019-01-23T04:23:49.918Z,99304.05
2019-01-23T04:26:51.849Z,99296.72
2019-01-23T04:29:53.883Z,99300.19
2019-01-23T04:32:55.858Z,99288.95
2019-01-23T04:35:57.892Z,99288.95
2019-01-23T04:38:59.873Z,99280.73
2019-01-23T04:42:01.835Z,99279.53
2019-01-23T04:45:07.075Z,99277.17
2019-01-23T04:48:09.157Z,99277.17
2019-01-23T04:51:18.924Z,99278.71
2019-01-23T04:54:20.934Z,99265.31
2019-01-23T04:57:22.925Z,99265.31
2019-01-23T05:00:26.757Z,99266.25
2019-01-23T05:03:28.715Z,99268.51
2019-01-23T05:06:30.698Z,99276.08
2019-01-23T05:09:32.645Z,99267.72
2019-01-23T05:12:34.635Z,99266.75
2019-01-23T05:15:36.548Z,99279.12
2019-01-23T05:18:38.639Z,99270.31
2019-01-23T05:21:40.650Z,99266.45
2019-01-23T05:24:42.668Z,99267.29
2019-01-23T05:27:44.639Z,99261.76
2019-01-23T05:30:46.714Z,99269.05
2019-01-23T05:33:48.675Z,99269.05
2019-01-23T05:36:50.639Z,99270.12
2019-01-23T05:39:52.621Z,99274.63
2019-01-23T05:42:54.654Z,99270.69
2019-01-23T05:45:56.635Z,99267.94
2019-01-23T05:48:58.646Z,99263.97
2019-01-23T05:52:00.855Z,99270.91
2019-01-23T05:55:04.927Z,99274.05
2019-01-23T05:58:06.878Z,99270.50
2019-01-23T06:01:08.956Z,99270.50
2019-01-23T06:04:10.935Z,99268.02
2019-01-23T06:07:12.944Z,99268.02
2019-01-23T06:10:14.955Z,99271.74
2019-01-23T06:13:16.993Z,99259.92
2019-01-23T06:16:18.994Z,99269.20
2019-01-23T06:19:22.031Z,99264.62
2019-01-23T06:22:24.100Z,99264.62
2019-01-23T06:25:26.108Z,99262.51
2019-01-23T06:28:28.124Z,99275.31
2019-01-23T06:31:30.173Z,99281.77
2019-01-23T06:34:32.098Z,99289.66
2019-01-23T06:37:34.096Z,99289.66
2019-01-23T06:40:36.051Z,99279.80
2019-01-23T06:43:38.063Z,99279.80
2019-01-23T06:46:40.038Z,99284.94
2019-01-23T06:49:42.168Z,99270.56
2019-01-23T06:52:44.105Z,99270.56
2019-01-23T06:55:46.135Z,99273.61
2019-01-23T06:58:48.036Z,99273.86
2019-01-23T07:01:49.996Z,99273.86
2019-01-23T07:04:51.998Z,99266.88
2019-01-23T07:07:53.922Z,99273.86
2019-01-23T07:10:55.919Z,99271.95
2019-01-23T07:13:57.945Z,99264.53
2019-01-23T07:16:59.892Z,99264.53
2019-01-23T07:20:02.094Z,99257.46
2019-01-23T07:23:04.373Z,99269.16
2019-01-23T07:26:06.379Z,99256.35
2019-01-23T07:29:08.329Z,99269.16
2019-01-23T07:32:11.362Z,99264.02
2019-01-23T07:35:13.737Z,99257.59
2019-01-23T07:38:15.806Z,99257.59
2019-01-23T07:41:18.886Z,99268.39
2019-01-23T07:44:20.955Z,99260.63
2019-01-23T07:47:22.885Z,99275.46
2019-01-23T07:50:24.930Z,99268.78
2019-01-23T07:53:27.008Z,99276.80
2019-01-23T07:56:29.085Z,99269.80
2019-01-23T07:59:31.093Z,99278.23
2019-01-23T08:02:33.120Z,99277.11
2019-01-23T08:05:35.054Z,99272.36
2019-01-23T08:08:37.080Z,99272.25
2019-01-23T08:11:39.384Z,99272.25
2019-01-23T08:14:42.202Z,99268.67
2019-01-23T08:17:44.493Z,99267.83
2019-01-23T08:20:46.644Z,99267.83
2019-01-23T08:23:48.975Z,99266.95
2019-01-23T08:26:51.012Z,99264.12
2019-01-23T08:29:52.929Z,99266.83
2019-01-23T08:32:54.938Z,99263.97
2019-01-23T08:35:56.897Z,99268.41
2019-01-23T08:38:58.888Z,99269.87
2019-01-23T08:42:01.019Z,99261.19
2019-01-23T08:45:05.719Z,99261.52
2019-01-23T08:48:07.650Z,99258.28
2019-01-23T08:51:09.660Z,99270.86
2019-01-23T08:54:11.664Z,99267.02
2019-01-23T08:57:13.704Z,99265.94
2019-01-23T09:00:16.568Z,99261.47
2019-01-23T09:03:18.506Z,99262.77
2019-01-23T09:06:21.869Z,99257.86
2019-01-23T09:09:24.196Z,99259.73
2019-01-23T09:12:26.207Z,99261.48
2019-01-23T09:15:28.198Z,99250.30
2019-01-23T09:18:30.153Z,99250.64
2019-01-23T09:21:34.161Z,99250.47
2019-01-23T09:24:36.246Z,99254.41
2019-01-23T09:27:38.345Z,99246.47
2019-01-23T09:30:43.647Z,99246.17
2019-01-23T09:33:52.920Z,99242.88
2019-01-23T09:37:07.513Z,99242.88
2019-01-23T09:40:19.030Z,99241.42
2019-01-23T09:43:41.401Z,99241.42
2019-01-23T09:46:47.125Z,99242.69
2019-01-23T09:50:14.151Z,99248.55
2019-01-23T09:53:22.877Z,99248.55
2019-01-23T09:56:24.912Z,99236.06
2019-01-23T09:59:26.931Z,99236.66
2019-01-23T10:02:28.872Z,99236.66
2019-01-23T10:05:30.873Z,99237.20
2019-01-23T10:08:32.852Z,99231.52
2019-01-23T10:11:34.870Z,99225.68
2019-01-23T10:14:36.792Z,99221.66
2019-01-23T10:17:38.974Z,99237.45
2019-01-23T10:20:41.510Z,99218.47
2019-01-23T10:23:43.835Z,99218.97
2019-01-23T10:26:46.157Z,99214.78
2019-01-23T10:29:48.190Z,99211.24
2019-01-23T10:32:50.460Z,99210.05
2019-01-23T10:35:52.481Z,99207.47
2019-01-23T10:38:54.479Z,99204.88
2019-01-23T10:41:56.744Z,99205.41
2019-01-23T10:44:58.764Z,99209.86
2019-01-23T10:48:01.320Z,99209.00
2019-01-23T10:51:03.647Z,99201.91
2019-01-23T10:54:05.767Z,99208.67
2019-01-23T10:57:07.909Z,99203.38
2019-01-23T11:00:13.607Z,99201.45
2019-01-23T11:03:15.682Z,99201.34
2019-01-23T11:06:17.810Z,99194.30
2019-01-23T11:09:19.892Z,99196.30
2019-01-23T11:12:21.963Z,99192.75
2019-01-23T11:15:24.553Z,99187.92
2019-01-23T11:18:26.584Z,99184.47
2019-01-23T11:21:28.630Z,99176.20
2019-01-23T11:24:30.801Z,99185.11
2019-01-23T11:27:32.861Z,99181.42
2019-01-23T11:30:35.083Z,99176.95
2019-01-23T11:33:37.111Z,99179.60
2019-01-23T11:36:39.320Z,99171.64
2019-01-23T11:39:41.382Z,99163.33
2019-01-23T11:42:43.444Z,99175.17
2019-01-23T11:45:45.438Z,99169.06
2019-01-23T11:48:47.522Z,99171.38
2019-01-23T11:51:49.514Z,99157.39
2019-01-23T11:54:51.576Z,99163.06
2019-01-23T11:57:53.734Z,99151.91
2019-01-23T12:00:55.851Z,99155.99
2019-01-23T12:03:57.828Z,99146.44
2019-01-23T12:06:59.940Z,99154.90
2019-01-23T12:10:02.031Z,99152.04
2019-01-23T12:13:04.057Z,99147.98
2019-01-23T12:16:06.361Z,99148.59
2019-01-23T12:19:08.959Z,99144.45
2019-01-23T12:22:10.942Z,99143.72
2019-01-23T12:25:13.855Z,99147.47
2019-01-23T12:28:16.768Z,99137.44
2019-01-23T12:31:19.772Z,99143.11
2019-01-23T12:34:21.764Z,99137.59
2019-01-23T12:37:24.942Z,99137.87
2019-01-23T12:40:26.949Z,99133.70
2019-01-23T12:43:29.035Z,99140.19
2019-01-23T12:46:31.332Z,99125.32
2019-01-23T12:49:33.372Z,99122.29
2019-01-23T12:52:36.579Z,99125.32
2019-01-23T12:55:38.649Z,99117.98
2019-01-23T12:58:40.695Z,99121.34
2019-01-23T13:01:42.713Z,99122.50
2019-01-23T13:04:44.731Z,99118.72
2019-01-23T13:07:47.274Z,99122.89
2019-01-23T13:10:49.333Z,99119.69
2019-01-23T13:13:51.400Z,99114.12
2019-01-23T13:16:53.450Z,99119.08
2019-01-23T13:19:56.643Z,99119.08
2019-01-23T13:22:58.794Z,99121.41
2019-01-23T13:26:01.338Z,99123.80
2019-01-23T13:29:03.369Z,99122.55
2019-01-23T13:32:06.367Z,99117.81
2019-01-23T13:35:11.804Z,99124.56
2019-01-23T13:38:14.394Z,99130.33
2019-01-23T13:41:16.690Z,99125.39
2019-01-23T13:44:18.775Z,99125.83
2019-01-23T13:47:20.774Z,99128.16
2019-01-23T13:50:22.853Z,99123.22
2019-01-23T13:53:24.973Z,99125.30
2019-01-23T13:56:27.045Z,99125.14
2019-01-23T13:59:29.043Z,99134.58
2019-01-23T14:02:31.080Z,99121.11
2019-01-23T14:05:33.581Z,99121.71
2019-01-23T14:08:35.722Z,99126.81
2019-01-23T14:11:37.773Z,99123.38
2019-01-23T14:14:39.814Z,99123.22
2019-01-23T14:17:41.798Z,99120.59
2019-01-23T14:20:43.886Z,99126.50
2019-01-23T14:23:45.856Z,99124.27
2019-01-23T14:26:48.077Z,99126.66
2019-01-23T14:29:50.086Z,99123.05
2019-01-23T14:32:52.261Z,99126.47
2019-01-23T14:35:54.787Z,99123.86
2019-01-23T14:38:56.794Z,99123.14
2019-01-23T14:41:58.919Z,99126.66
2019-01-23T14:45:02.143Z,99125.74
2019-01-23T14:48:06.380Z,99125.57
2019-01-23T14:51:08.543Z,99129.94
2019-01-23T14:54:11.038Z,99133.81
2019-01-23T14:57:13.209Z,99138.29
2019-01-23T15:00:21.091Z,99139.06
2019-01-23T15:03:23.169Z,99140.98
2019-01-23T15:06:25.658Z,99133.73
2019-01-23T15:09:28.171Z,99140.55
2019-01-23T15:12:30.318Z,99144.00
2019-01-23T15:15:32.521Z,99138.36
2019-01-23T15:18:35.642Z,99140.84
2019-01-23T15:21:37.976Z,99144.19
2019-01-23T15:24:39.971Z,99150.42
2019-01-23T15:27:42.331Z,99151.63
2019-01-23T15:30:47.366Z,99155.66
2019-01-23T15:33:49.370Z,99147.82
2019-01-23T15:36:51.841Z,99153.29
2019-01-23T15:39:53.934Z,99149.53
2019-01-23T15:42:56.036Z,99146.38
2019-01-23T15:45:58.518Z,99149.44
2019-01-23T15:49:01.053Z,99162.68
2019-01-23T15:52:09.524Z,99160.16
2019-01-23T15:55:14.371Z,99167.73
2019-01-23T15:58:17.953Z,99165.72
2019-01-23T16:01:20.285Z,99171.33
2019-01-23T16:04:22.403Z,99174.55
2019-01-23T16:07:24.436Z,99173.52
2019-01-23T16:10:27.796Z,99180.55
2019-01-23T16:13:29.903Z,99170.66
2019-01-23T16:16:32.498Z,99182.88
2019-01-23T16:19:35.221Z,99188.48
2019-01-23T16:22:37.470Z,99190.28
2019-01-23T16:25:39.502Z,99181.30
2019-01-23T16:28:41.730Z,99184.73
2019-01-23T16:31:43.787Z,99184.20
2019-01-23T16:34:45.873Z,99189.39
2019-01-23T16:37:49.882Z,99192.29
2019-01-23T16:40:52.072Z,99182.57
2019-01-23T16:43:54.491Z,99185.71
2019-01-23T16:46:56.808Z,99186.84
2019-01-23T16:49:59.548Z,99180.56
2019-01-23T16:53:04.209Z,99194.23
2019-01-23T16:56:11.188Z,99195.46
2019-01-23T16:59:13.290Z,99194.48
2019-01-23T17:02:17.360Z,99197.47
2019-01-23T17:05:25.263Z,99199.80
2019-01-23T17:08:27.927Z,99212.97
2019-01-23T17:11:30.018Z,99206.08
2019-01-23T17:14:32.084Z,99209.06
2019-01-23T17:17:34.162Z,99208.11
2019-01-23T17:20:39.485Z,99207.66
2019-01-23T17:23:41.616Z,99210.64
2019-01-23T17:26:43.851Z,99219.64
2019-01-23T17:29:48.054Z,99212.61
2019-01-23T17:32:50.052Z,99220.09
2019-01-23T17:35:52.586Z,99223.69
2019-01-23T17:38:54.649Z,99211.71
2019-01-23T17:41:56.957Z,99219.72
2019-01-23T17:45:03.325Z,99227.56
2019-01-23T17:48:08.109Z,99235.28
2019-01-23T17:51:10.075Z,99237.45
2019-01-23T17:54:12.085Z,99230.34
2019-01-23T17:57:15.899Z,99244.03
2019-01-23T18:00:25.408Z,99232.80
2019-01-23T18:03:29.729Z,99234.88
2019-01-23T18:06:31.735Z,99238.09
2019-01-23T18:09:36.101Z,99248.23
2019-01-23T18:12:39.935Z,99246.39
2019-01-23T18:15:41.934Z,99255.52
2019-01-23T18:18:44.220Z,99245.19
2019-01-23T18:21:46.157Z,99242.05
2019-01-23T18:24:48.703Z,99244.13
2019-01-23T18:27:52.494Z,99246.83
2019-01-23T18:30:58.275Z,99253.11
2019-01-23T18:34:28.862Z,99257.59
2019-01-23T18:37:40.415Z,99262.55
2019-01-23T18:41:01.635Z,99256.13
2019-01-23T18:44:13.085Z,99265.20
2019-01-23T18:47:28.394Z,99251.32
2019-01-23T18:50:42.970Z,99254.64
2019-01-23T18:53:46.464Z,99259.45
2019-01-23T18:56:48.520Z,99265.02
2019-01-23T18:59:51.247Z,99265.88
2019-01-23T19:02:53.560Z,99259.02
2019-01-23T19:05:55.527Z,99273.95
2019-01-23T19:08:57.546Z,99279.05
2019-01-23T19:11:59.718Z,99279.05
2019-01-23T19:15:01.987Z,99270.80
2019-01-23T19:18:04.273Z,99272.50
2019-01-23T19:21:06.312Z,99289.31
2019-01-23T19:24:08.534Z,99283.78
2019-01-23T19:27:10.630Z,99271.61
2019-01-23T19:30:22.151Z,99278.95
2019-01-23T19:33:27.811Z,99279.90
2019-01-23T19:36:31.289Z,99304.25
2019-01-23T19:39:33.381Z,99287.63
2019-01-23T19:42:37.054Z,99274.72
2019-01-23T19:45:40.139Z,99282.97
2019-01-23T19:48:42.854Z,99286.74
2019-01-23T19:51:44.972Z,99294.65
2019-01-23T19:54:50.085Z,99290.70
2019-01-23T19:57:52.561Z,99290.43
2019-01-23T20:00:56.451Z,99297.69
2019-01-23T20:03:58.510Z,99288.77
2019-01-23T20:07:00.431Z,99285.08
2019-01-23T20:10:06.138Z,99291.69
2019-01-23T20:13:08.129Z,99298.72
2019-01-23T20:16:10.769Z,99295.20
2019-01-23T20:19:13.928Z,99295.14
2019-01-23T20:22:16.375Z,99293.84
2019-01-23T20:25:24.072Z,99310.77
2019-01-23T20:28:27.824Z,99310.77
2019-01-23T20:31:30.201Z,99304.01
2019-01-23T20:34:32.244Z,99301.41
2019-01-23T20:37:43.462Z,99308.72
2019-01-23T20:40:42.975Z,99317.08
2019-01-23T20:43:45.600Z,99316.33
2019-01-23T20:46:47.837Z,99320.70
2019-01-23T20:49:49.886Z,99327.00
2019-01-23T20:52:52.391Z,99320.09
2019-01-23T20:55:54.668Z,99322.19
2019-01-23T20:58:57.271Z,99324.77
2019-01-23T21:01:59.528Z,99323.70
2019-01-23T21:05:05.312Z,99321.54
2019-01-23T21:08:10.520Z,99324.32
2019-01-23T21:11:14.751Z,99321.17
2019-01-23T21:14:19.358Z,99326.77
2019-01-23T21:17:23.578Z,99324.13
2019-01-23T21:20:28.800Z,99324.62
2019-01-23T21:23:32.024Z,99323.14
2019-01-23T21:26:34.066Z,99323.23
2019-01-23T21:29:36.188Z,99330.91
2019-01-23T21:32:38.185Z,99334.78
2019-01-23T21:35:40.423Z,99332.05
2019-01-23T21:38:42.409Z,99329.80
2019-01-23T21:41:44.488Z,99335.92
2019-01-23T21:44:46.504Z,99336.83
2019-01-23T21:47:50.561Z,99341.63
2019-01-23T21:50:52.795Z,99332.73
2019-01-23T21:53:55.211Z,99338.27
2019-01-23T21:56:57.221Z,99343.73
2019-01-23T21:59:59.254Z,99345.61
2019-01-23T22:03:03.321Z,99349.23
2019-01-23T22:06:05.364Z,99353.60
2019-01-23T22:09:10.072Z,99351.75
2019-01-23T22:12:12.563Z,99359.72
2019-01-23T22:15:20.143Z,99358.84
2019-01-23T22:18:22.205Z,99364.14
2019-01-23T22:21:24.195Z,99360.02
2019-01-23T22:24:27.227Z,99361.17
2019-01-23T22:27:29.689Z,99360.41
2019-01-23T22:30:33.130Z,99370.73
2019-01-23T22:33:35.126Z,99364.69
2019-01-23T22:36:37.246Z,99369.36
2019-01-23T22:39:39.331Z,99370.98
2019-01-23T22:42:41.482Z,99377.42
2019-01-23T22:45:43.483Z,99381.14
2019-01-23T22:48:45.523Z,99388.58
2019-01-23T22:51:47.567Z,99387.52
2019-01-23T22:54:49.673Z,99396.70
2019-01-23T22:57:51.651Z,99401.56
2019-01-23T23:00:57.437Z,99403.67
2019-01-23T23:04:03.458Z,99407.28
2019-01-23T23:07:04.517Z,99414.97
2019-01-23T23:10:08.803Z,99406.27
2019-01-23T23:13:10.814Z,99412.44
2019-01-23T23:16:12.805Z,99413.58
2019-01-23T23:19:14.853Z,99413.77
2019-01-23T23:22:16.862Z,99406.17
2019-01-23T23:25:18.877Z,99402.00
2019-01-23T23:28:25.881Z,99407.05
2019-01-23T23:31:26.084Z,99402.17
2019-01-23T23:34:28.081Z,99402.55
2019-01-23T23:37:30.332Z,99404.92
2019-01-23T23:40:32.357Z,99396.30
2019-01-23T23:43:34.393Z,99402.30
2019-01-23T23:46:36.409Z,99399.55
2019-01-23T23:49:38.433Z,99408.41
2019-01-23T23:52:40.648Z,99405.30
2019-01-23T23:55:42.703Z,99401.17
2019-01-23T23:58:44.803Z,99400.73
